Time;durP1;ratioP1;P1;durP2;ratioP2;P2;SDS_P1;SDS_P2;PMS_P1;PMS_P2;Temp;Humidity;BMP_temperature;BMP_pressure;BME280_temperature;BME280_humidity;BME280_pressure;Samples;Min_cycle;Max_cycle;Signal;HPM_P1;HPM_P2
2023/09/28 00:03:11;;;;;;;2.60;2.40;;;21.10;76.30;;;;;;4954080;28;20229;-69
2023/09/28 00:05:37;;;;;;;2.78;2.58;;;21.10;76.30;;;;;;4992427;28;20304;-70
2023/09/28 00:08:03;;;;;;;3.45;2.78;;;21.10;76.20;;;;;;4991893;28;20209;-69
2023/09/28 00:10:30;;;;;;;3.13;2.83;;;21.10;76.20;;;;;;4980228;28;20193;-70
2023/09/28 00:12:56;;;;;;;2.75;2.53;;;21.10;77.00;;;;;;4992105;28;20192;-70
2023/09/28 00:15:26;;;;;;;3.05;2.80;;;21.10;76.20;;;;;;4975857;28;20255;-70
2023/09/28 00:17:54;;;;;;;3.20;2.90;;;21.00;76.10;;;;;;4991715;28;20633;-70
2023/09/28 00:20:22;;;;;;;2.70;2.50;;;21.10;76.20;;;;;;4981989;28;20584;-70
2023/09/28 00:22:56;;;;;;;3.30;2.85;;;21.10;76.10;;;;;;4976992;28;20260;-70
2023/09/28 00:25:23;;;;;;;3.30;2.50;;;21.10;76.10;;;;;;4959592;28;20199;-70
2023/09/28 00:27:52;;;;;;;2.30;2.20;;;21.00;76.90;;;;;;4995320;28;20212;-70
2023/09/28 00:30:22;;;;;;;2.58;2.38;;;21.10;76.20;;;;;;4959740;28;20280;-70
2023/09/28 00:32:50;;;;;;;2.60;2.40;;;21.10;76.20;;;;;;4990643;28;20209;-72
2023/09/28 00:35:17;;;;;;;2.60;2.40;;;21.10;76.10;;;;;;4991630;28;20284;-70
2023/09/28 00:37:44;;;;;;;2.80;2.60;;;21.00;76.00;;;;;;4990547;28;20209;-70
2023/09/28 00:40:21;;;;;;;2.60;2.40;;;21.00;76.10;;;;;;4976716;28;20192;-70
2023/09/28 00:42:50;;;;;;;2.75;2.55;;;21.00;76.00;;;;;;4995314;28;20610;-69
2023/09/28 00:45:19;;;;;;;3.33;2.60;;;21.00;76.00;;;;;;4995355;28;20224;-70
2023/09/28 00:47:46;;;;;;;2.80;2.60;;;21.00;76.00;;;;;;4976834;28;20205;-69
2023/09/28 00:50:14;;;;;;;3.10;2.80;;;21.00;76.00;;;;;;4975279;28;20185;-70
2023/09/28 00:52:47;;;;;;;2.65;2.45;;;21.00;76.00;;;;;;4979592;28;20197;-70
2023/09/28 00:55:16;;;;;;;2.95;2.65;;;21.00;76.00;;;;;;4976870;28;20192;-70
2023/09/28 00:57:44;;;;;;;2.60;2.40;;;21.00;76.00;;;;;;4975134;28;20307;-70
2023/09/28 01:00:23;;;;;;;3.00;2.65;;;21.00;76.00;;;;;;4975136;28;20288;-70
2023/09/28 01:02:51;;;;;;;2.47;2.28;;;21.00;75.90;;;;;;4975137;28;20192;-70
2023/09/28 01:05:34;;;;;;;2.80;2.60;;;21.00;76.00;;;;;;4978742;28;20189;-70
2023/09/28 01:08:15;;;;;;;2.45;2.25;;;21.00;76.00;;;;;;4994231;28;20203;-70
2023/09/28 01:10:41;;;;;;;2.53;2.30;;;21.00;76.00;;;;;;4972625;28;20220;-69
2023/09/28 01:13:12;;;;;;;2.70;2.50;;;21.00;75.90;;;;;;4991095;28;20177;-69
2023/09/28 01:15:48;;;;;;;2.60;2.40;;;21.00;75.90;;;;;;4975026;28;20257;-70
2023/09/28 01:18:17;;;;;;;2.88;2.65;;;21.00;75.90;;;;;;4991144;28;20208;-70
2023/09/28 01:20:48;;;;;;;3.05;2.72;;;21.00;75.90;;;;;;4994287;28;20192;-69
2023/09/28 01:23:15;;;;;;;2.70;2.50;;;21.00;75.90;;;;;;4965487;28;20211;-70
2023/09/28 01:25:41;;;;;;;2.80;2.55;;;21.00;75.90;;;;;;4992167;28;20227;-70
2023/09/28 01:28:07;;;;;;;2.72;2.45;;;21.00;75.90;;;;;;4974027;28;20243;-70
2023/09/28 01:30:34;;;;;;;2.45;2.25;;;21.00;75.90;;;;;;4974895;28;20199;-69
2023/09/28 01:33:00;;;;;;;2.70;2.50;;;21.00;75.80;;;;;;4993922;28;20228;-69
2023/09/28 01:35:28;;;;;;;2.97;2.50;;;21.00;75.90;;;;;;4974688;28;20246;-70
2023/09/28 01:38:34;;;;;;;2.70;2.50;;;21.00;76.00;;;;;;4962684;28;20213;-69
2023/09/28 01:41:02;;;;;;;2.50;2.28;;;21.00;75.80;;;;;;4990406;28;20675;-69
2023/09/28 01:43:28;;;;;;;2.33;2.13;;;21.00;75.80;;;;;;4997189;28;20247;-69
2023/09/28 01:45:53;;;;;;;2.53;2.33;;;21.00;75.90;;;;;;4990767;28;20196;-69
2023/09/28 01:48:19;;;;;;;2.47;2.25;;;21.00;75.80;;;;;;4990672;28;20217;-70
2023/09/28 01:50:45;;;;;;;2.60;2.40;;;21.00;75.80;;;;;;4990792;28;20188;-70
2023/09/28 01:53:11;;;;;;;2.20;2.00;;;21.00;75.80;;;;;;4993741;28;20188;-70
2023/09/28 01:55:37;;;;;;;2.80;2.60;;;21.00;75.80;;;;;;4991171;28;20199;-70
2023/09/28 01:58:07;;;;;;;3.05;2.60;;;21.00;75.80;;;;;;4990274;28;20204;-69
2023/09/28 02:00:35;;;;;;;2.45;2.25;;;21.00;75.80;;;;;;4974827;28;20185;-69
2023/09/28 02:03:07;;;;;;;2.70;2.40;;;21.00;75.80;;;;;;4990624;28;20195;-70
2023/09/28 02:05:34;;;;;;;2.50;2.30;;;20.90;75.70;;;;;;4993629;28;20192;-70
2023/09/28 02:08:07;;;;;;;2.63;2.10;;;21.00;75.70;;;;;;4958645;28;20699;-70
2023/09/28 02:10:33;;;;;;;2.50;2.30;;;21.00;75.80;;;;;;4990312;28;20225;-70
2023/09/28 02:12:59;;;;;;;2.35;2.15;;;21.00;75.80;;;;;;4975216;28;20196;-70
2023/09/28 02:15:25;;;;;;;2.40;2.30;;;21.00;75.80;;;;;;4993695;28;20638;-69
2023/09/28 02:17:51;;;;;;;2.25;2.08;;;20.90;75.70;;;;;;4991564;28;20223;-69
2023/09/28 02:20:22;;;;;;;2.58;2.38;;;20.90;75.70;;;;;;4959485;28;20272;-70
2023/09/28 02:22:50;;;;;;;2.45;2.25;;;20.90;75.70;;;;;;4988252;28;20573;-69
2023/09/28 02:25:19;;;;;;;2.53;2.33;;;21.00;75.70;;;;;;4962223;28;20263;-70
2023/09/28 02:27:50;;;;;;;2.30;2.10;;;21.00;75.70;;;;;;4990129;28;20213;-70
2023/09/28 02:30:22;;;;;;;2.80;2.50;;;20.90;75.60;;;;;;4996050;28;20181;-69
2023/09/28 02:32:49;;;;;;;2.42;2.17;;;20.90;75.60;;;;;;4992827;28;20185;-69
2023/09/28 02:35:16;;;;;;;2.80;2.60;;;20.90;75.60;;;;;;4962981;28;20184;-69
2023/09/28 02:37:45;;;;;;;2.65;2.40;;;20.90;75.60;;;;;;4973953;28;20217;-69
2023/09/28 02:40:13;;;;;;;3.03;2.20;;;20.90;75.60;;;;;;4993315;28;20274;-70
2023/09/28 02:42:40;;;;;;;2.40;2.20;;;20.90;75.60;;;;;;4995154;28;20656;-70
2023/09/28 02:45:11;;;;;;;2.08;1.98;;;20.90;75.60;;;;;;4978475;28;20240;-70
2023/09/28 02:47:45;;;;;;;2.55;2.35;;;20.90;75.60;;;;;;4977249;28;20209;-69
2023/09/28 02:50:13;;;;;;;2.50;2.30;;;21.00;75.60;;;;;;4982043;28;20605;-70
2023/09/28 02:52:41;;;;;;;2.45;2.10;;;20.90;75.50;;;;;;4999146;28;20188;-70
2023/09/28 02:55:10;;;;;;;2.45;2.25;;;20.90;75.60;;;;;;4977276;28;20218;-69
2023/09/28 02:57:36;;;;;;;2.88;2.65;;;20.90;75.60;;;;;;4977256;28;20588;-71
2023/09/28 03:00:15;;;;;;;2.30;2.10;;;20.90;75.60;;;;;;4996459;28;20197;-70
2023/09/28 03:02:42;;;;;;;2.10;2.00;;;20.90;75.60;;;;;;5002989;28;20189;-70
2023/09/28 03:05:08;;;;;;;2.30;2.10;;;20.90;75.60;;;;;;4998661;28;20214;-70
2023/09/28 03:07:35;;;;;;;2.40;2.20;;;20.90;75.50;;;;;;4983246;28;20223;-70
2023/09/28 03:10:05;;;;;;;2.58;2.38;;;20.90;75.50;;;;;;4978979;28;20258;-69
2023/09/28 03:12:32;;;;;;;2.28;2.08;;;20.90;75.60;;;;;;4995297;28;20604;-70
2023/09/28 03:14:58;;;;;;;2.40;2.20;;;20.90;75.50;;;;;;4978193;28;20201;-70
2023/09/28 03:17:23;;;;;;;2.20;2.00;;;20.90;75.50;;;;;;4963244;28;20216;-69
2023/09/28 03:19:49;;;;;;;2.25;2.05;;;20.90;75.50;;;;;;4998510;28;20653;-69
2023/09/28 03:22:15;;;;;;;2.10;1.90;;;20.90;75.50;;;;;;4960930;28;20260;-70
2023/09/28 03:24:41;;;;;;;2.50;2.30;;;20.90;75.50;;;;;;4987199;28;20236;-70
2023/09/28 03:27:08;;;;;;;2.05;1.95;;;20.90;75.50;;;;;;4995212;28;20217;-70
2023/09/28 03:29:34;;;;;;;2.65;1.98;;;20.90;75.40;;;;;;4977143;28;20272;-70
2023/09/28 03:32:00;;;;;;;2.38;2.17;;;20.90;76.30;;;;;;4978026;28;20212;-70
2023/09/28 03:34:25;;;;;;;2.22;2.03;;;20.90;75.50;;;;;;4994760;28;20189;-70
2023/09/28 03:36:51;;;;;;;2.63;2.42;;;20.90;75.50;;;;;;4991383;28;20216;-70
2023/09/28 03:39:18;;;;;;;2.45;2.25;;;20.90;75.50;;;;;;4965231;28;20196;-69
2023/09/28 03:41:44;;;;;;;2.10;1.95;;;20.80;75.40;;;;;;4976921;28;20288;-69
2023/09/28 03:44:10;;;;;;;2.20;2.00;;;20.80;75.30;;;;;;4979363;28;20300;-69
2023/09/28 03:46:36;;;;;;;2.10;1.90;;;20.90;75.50;;;;;;4989039;28;20194;-70
2023/09/28 03:49:02;;;;;;;2.25;2.10;;;20.90;75.50;;;;;;5009110;28;20188;-69
2023/09/28 03:51:28;;;;;;;2.03;1.83;;;20.90;75.50;;;;;;4959906;28;20648;-69
2023/09/28 03:53:53;;;;;;;2.47;2.28;;;20.90;75.40;;;;;;4976148;28;20200;-69
2023/09/28 03:56:19;;;;;;;2.58;2.38;;;20.80;75.30;;;;;;4981409;28;20277;-70
2023/09/28 03:58:45;;;;;;;2.22;2.03;;;20.90;75.50;;;;;;4967338;28;20223;-69
2023/09/28 04:01:11;;;;;;;2.17;1.98;;;20.90;75.40;;;;;;4977264;28;20207;-70
2023/09/28 04:03:36;;;;;;;2.20;2.00;;;20.90;75.40;;;;;;4994720;28;20278;-71
2023/09/28 04:06:02;;;;;;;2.33;2.13;;;20.90;75.40;;;;;;4992864;28;20280;-69
2023/09/28 04:08:29;;;;;;;2.53;2.30;;;20.80;75.30;;;;;;4975876;28;20215;-69
2023/09/28 04:10:55;;;;;;;2.20;2.00;;;20.80;75.30;;;;;;4992423;28;20199;-70
2023/09/28 04:13:21;;;;;;;2.38;2.10;;;20.80;75.30;;;;;;4983572;28;20184;-70
2023/09/28 04:15:48;;;;;;;2.30;2.10;;;20.80;75.30;;;;;;4993303;28;20207;-70
2023/09/28 04:18:14;;;;;;;2.10;1.88;;;20.80;75.30;;;;;;4995290;28;20223;-69
2023/09/28 04:20:41;;;;;;;2.55;2.35;;;20.80;75.30;;;;;;4992927;28;20197;-69
2023/09/28 04:23:08;;;;;;;2.35;2.15;;;20.80;75.30;;;;;;4976629;28;20193;-71
2023/09/28 04:25:35;;;;;;;2.40;2.20;;;20.80;75.30;;;;;;4993563;28;20573;-71
2023/09/28 04:28:01;;;;;;;2.17;1.98;;;20.80;75.20;;;;;;4974889;28;20244;-71
2023/09/28 04:30:27;;;;;;;2.60;2.05;;;20.90;75.40;;;;;;5002865;28;20185;-70
2023/09/28 04:32:54;;;;;;;2.40;2.15;;;20.80;75.30;;;;;;4980209;28;20603;-70
2023/09/28 04:35:20;;;;;;;1.90;1.80;;;20.80;75.30;;;;;;4960178;28;20277;-70
2023/09/28 04:37:47;;;;;;;1.98;1.83;;;20.80;75.30;;;;;;4975315;28;20204;-70
2023/09/28 04:40:14;;;;;;;2.10;1.90;;;20.80;75.30;;;;;;4977161;28;20214;-70
2023/09/28 04:42:40;;;;;;;2.40;2.20;;;20.80;75.30;;;;;;4992631;28;20200;-70
2023/09/28 04:45:06;;;;;;;3.22;2.50;;;20.80;75.30;;;;;;4976323;28;20213;-70
2023/09/28 04:47:32;;;;;;;2.50;2.30;;;20.80;75.30;;;;;;4976907;28;20244;-70
2023/09/28 04:50:00;;;;;;;2.20;2.00;;;20.80;75.30;;;;;;4992535;28;20275;-70
2023/09/28 04:52:27;;;;;;;2.50;2.30;;;20.80;75.30;;;;;;4975215;28;20185;-70
2023/09/28 04:54:52;;;;;;;2.45;2.25;;;20.80;75.30;;;;;;4991418;28;20199;-70
2023/09/28 04:57:21;;;;;;;2.35;2.15;;;20.80;75.30;;;;;;4992126;28;20212;-70
2023/09/28 04:59:47;;;;;;;2.05;1.95;;;20.80;75.30;;;;;;4988135;28;20217;-70
2023/09/28 05:02:13;;;;;;;4.05;2.10;;;20.80;75.20;;;;;;4990018;28;20228;-71
2023/09/28 05:04:39;;;;;;;2.17;1.98;;;20.80;75.30;;;;;;4959201;28;20271;-68
2023/09/28 05:07:05;;;;;;;2.15;1.95;;;20.80;75.30;;;;;;4975621;28;20216;-71
2023/09/28 05:09:31;;;;;;;2.35;1.90;;;20.80;75.30;;;;;;4959269;28;20279;-72
2023/09/28 05:11:59;;;;;;;2.72;2.13;;;20.80;75.30;;;;;;4975155;28;20207;-71
2023/09/28 05:14:25;;;;;;;2.30;2.10;;;20.80;75.30;;;;;;4991025;28;20660;-70
2023/09/28 05:16:53;;;;;;;2.88;2.63;;;20.80;75.30;;;;;;4987642;28;20222;-69
2023/09/28 05:19:21;;;;;;;2.10;1.95;;;20.90;75.30;;;;;;4974994;28;20351;-70
2023/09/28 05:21:47;;;;;;;2.40;2.20;;;20.80;75.30;;;;;;4991223;28;20659;-70
2023/09/28 05:24:13;;;;;;;2.10;1.90;;;20.80;75.30;;;;;;4974744;28;20572;-70
2023/09/28 05:26:39;;;;;;;2.80;2.50;;;20.80;75.30;;;;;;4975300;28;20659;-71
2023/09/28 05:29:05;;;;;;;3.55;2.15;;;20.80;75.30;;;;;;4991921;28;20200;-70
2023/09/28 05:31:31;;;;;;;2.03;1.92;;;20.80;75.30;;;;;;4988046;28;20182;-70
2023/09/28 05:33:57;;;;;;;2.17;1.98;;;20.80;75.30;;;;;;4991549;28;20473;-70
2023/09/28 05:36:22;;;;;;;2.25;2.05;;;20.80;75.30;;;;;;4966091;28;20185;-70
2023/09/28 05:38:48;;;;;;;2.15;1.95;;;20.80;75.30;;;;;;4990395;28;20695;-70
2023/09/28 05:41:14;;;;;;;2.33;2.13;;;20.80;75.30;;;;;;4989343;28;20283;-71
2023/09/28 05:43:39;;;;;;;2.30;2.10;;;20.80;75.30;;;;;;4974946;28;20217;-70
2023/09/28 05:46:06;;;;;;;2.85;2.65;;;20.80;75.30;;;;;;4990398;28;20580;-70
2023/09/28 05:48:32;;;;;;;2.95;2.22;;;20.80;75.30;;;;;;4974824;28;20243;-70
2023/09/28 05:50:58;;;;;;;2.05;1.95;;;20.80;75.40;;;;;;4974446;28;20220;-72
2023/09/28 05:53:23;;;;;;;2.55;2.35;;;20.80;75.30;;;;;;4989782;28;20188;-70
2023/09/28 05:55:52;;;;;;;2.10;1.90;;;20.80;75.30;;;;;;5005080;28;20187;-70
2023/09/28 05:58:19;;;;;;;2.40;2.13;;;20.80;75.30;;;;;;4999543;28;20307;-71
2023/09/28 06:00:45;;;;;;;3.10;2.40;;;20.80;75.40;;;;;;4990759;28;20196;-70
2023/09/28 06:03:12;;;;;;;2.30;2.10;;;20.80;75.30;;;;;;4991734;28;20193;-70
2023/09/28 06:05:38;;;;;;;2.42;2.22;;;20.80;75.30;;;;;;5002249;28;20196;-70
2023/09/28 06:08:05;;;;;;;2.30;2.10;;;20.80;75.30;;;;;;4984990;28;20239;-70
2023/09/28 06:10:30;;;;;;;2.35;2.15;;;20.80;75.30;;;;;;4982548;28;20212;-71
2023/09/28 06:12:56;;;;;;;2.63;2.40;;;20.80;75.30;;;;;;4999765;28;20638;-70
2023/09/28 06:15:22;;;;;;;2.50;2.10;;;20.80;75.40;;;;;;5002460;28;20192;-70
2023/09/28 06:17:47;;;;;;;2.45;2.25;;;20.80;75.30;;;;;;4985460;28;20220;-70
2023/09/28 06:20:13;;;;;;;2.60;2.40;;;20.80;75.40;;;;;;4985782;28;20208;-70
2023/09/28 06:22:40;;;;;;;2.58;2.35;;;20.80;75.40;;;;;;4998468;28;20192;-71
2023/09/28 06:25:08;;;;;;;2.30;2.10;;;20.80;75.40;;;;;;4964705;28;20221;-72
2023/09/28 06:27:34;;;;;;;2.70;2.00;;;20.80;75.40;;;;;;4988838;28;20249;-71
2023/09/28 06:29:59;;;;;;;2.50;2.28;;;20.80;75.40;;;;;;4981592;28;20193;-70
2023/09/28 06:32:25;;;;;;;2.38;2.17;;;20.80;75.40;;;;;;4980189;28;20188;-70
2023/09/28 06:34:51;;;;;;;2.47;2.28;;;20.80;75.30;;;;;;4985609;28;20204;-70
2023/09/28 06:37:17;;;;;;;2.55;2.35;;;20.80;75.40;;;;;;4986395;28;20204;-70
2023/09/28 06:39:43;;;;;;;2.53;2.33;;;20.80;75.40;;;;;;4986961;28;20576;-70
2023/09/28 06:42:09;;;;;;;3.13;2.40;;;20.80;75.40;;;;;;4987873;28;20685;-70
2023/09/28 06:44:35;;;;;;;2.50;2.30;;;20.80;75.50;;;;;;4992690;28;20220;-70
2023/09/28 06:47:01;;;;;;;2.30;2.10;;;20.80;75.40;;;;;;4993611;28;20240;-70
2023/09/28 06:49:27;;;;;;;2.50;2.30;;;20.80;75.40;;;;;;4992155;28;20189;-71
2023/09/28 06:51:53;;;;;;;2.92;2.63;;;20.80;75.40;;;;;;4961398;28;20193;-70
2023/09/28 06:54:20;;;;;;;2.53;2.30;;;20.80;75.40;;;;;;5001995;28;20259;-70
2023/09/28 06:56:49;;;;;;;2.60;2.40;;;20.80;75.40;;;;;;4977402;28;20200;-70
2023/09/28 06:59:15;;;;;;;2.60;2.40;;;20.80;75.40;;;;;;4990141;28;20197;-70
2023/09/28 07:01:41;;;;;;;2.53;2.33;;;20.80;75.40;;;;;;4981682;28;20195;-71
2023/09/28 07:04:06;;;;;;;2.55;2.35;;;20.80;75.50;;;;;;4970891;28;20216;-70
2023/09/28 07:06:35;;;;;;;2.58;2.38;;;20.80;75.40;;;;;;4976996;28;20219;-70
2023/09/28 07:09:02;;;;;;;2.53;2.20;;;20.80;75.40;;;;;;4978529;28;20242;-70
2023/09/28 07:11:29;;;;;;;3.22;2.15;;;20.80;75.40;;;;;;5000761;28;20189;-70
2023/09/28 07:13:54;;;;;;;2.72;2.45;;;20.80;75.40;;;;;;4984184;28;20204;-70
2023/09/28 07:16:20;;;;;;;2.28;2.08;;;20.80;75.40;;;;;;4978232;28;20243;-70
2023/09/28 07:18:46;;;;;;;2.42;2.20;;;20.80;75.40;;;;;;4979081;28;20217;-71
2023/09/28 07:21:12;;;;;;;2.55;2.35;;;20.80;75.50;;;;;;4994321;28;20196;-71
2023/09/28 07:23:39;;;;;;;3.40;2.42;;;20.80;75.40;;;;;;5004555;28;20207;-71
2023/09/28 07:26:18;;;;;;;2.35;2.15;;;20.80;75.50;;;;;;4985868;28;20200;-71
2023/09/28 07:28:45;;;;;;;2.85;2.53;;;20.80;75.40;;;;;;4994601;28;20311;-71
2023/09/28 07:31:11;;;;;;;2.42;2.22;;;20.80;75.50;;;;;;4986048;28;20231;-70
2023/09/28 07:33:37;;;;;;;2.50;2.30;;;20.90;75.50;;;;;;4989728;28;20207;-70
2023/09/28 07:36:05;;;;;;;2.75;2.55;;;20.90;75.40;;;;;;4970657;28;20204;-70
2023/09/28 07:38:35;;;;;;;2.45;2.25;;;20.90;75.40;;;;;;5010036;28;20227;-71
2023/09/28 07:41:01;;;;;;;2.90;2.60;;;20.90;75.40;;;;;;4993683;28;20196;-70
2023/09/28 07:43:29;;;;;;;3.80;2.45;;;21.00;75.40;;;;;;4973563;28;20197;-70
2023/09/28 07:45:55;;;;;;;2.75;2.40;;;21.00;75.30;;;;;;4976314;28;20656;-70
2023/09/28 07:48:21;;;;;;;2.33;2.13;;;21.00;75.30;;;;;;4999356;28;20256;-70
2023/09/28 07:50:47;;;;;;;2.97;2.42;;;21.00;75.30;;;;;;4983348;28;20196;-70
2023/09/28 07:53:12;;;;;;;2.50;2.30;;;21.00;75.30;;;;;;4973405;28;20196;-71
2023/09/28 07:55:38;;;;;;;4.60;2.42;;;21.00;75.40;;;;;;5007299;28;20292;-70
2023/09/28 07:58:04;;;;;;;3.28;2.40;;;21.00;75.50;;;;;;4982482;28;20266;-70
2023/09/28 08:00:29;;;;;;;3.65;2.50;;;21.00;75.50;;;;;;4984279;28;20192;-70
2023/09/28 08:02:55;;;;;;;2.50;2.30;;;21.00;75.50;;;;;;4988192;28;20195;-70
2023/09/28 08:05:22;;;;;;;2.22;2.03;;;21.00;75.50;;;;;;4967993;28;20220;-71
2023/09/28 08:07:48;;;;;;;2.67;2.47;;;21.00;75.60;;;;;;4991231;28;20211;-70
2023/09/28 08:10:15;;;;;;;2.40;2.20;;;21.00;75.70;;;;;;5011722;28;20330;-71
2023/09/28 08:12:42;;;;;;;2.88;2.28;;;21.00;75.70;;;;;;4998595;28;20255;-70
2023/09/28 08:15:08;;;;;;;2.80;2.50;;;21.00;75.70;;;;;;4959854;28;20200;-70
2023/09/28 08:17:36;;;;;;;2.20;2.00;;;21.10;75.70;;;;;;4997402;28;20210;-70
2023/09/28 08:20:03;;;;;;;2.83;2.60;;;21.10;75.60;;;;;;4998397;28;20226;-70
2023/09/28 08:22:28;;;;;;;2.78;2.50;;;21.10;75.70;;;;;;4977593;28;20197;-70
2023/09/28 08:24:54;;;;;;;2.67;2.38;;;21.10;75.70;;;;;;5007895;28;20326;-70
2023/09/28 08:27:20;;;;;;;2.40;2.20;;;21.10;75.80;;;;;;4972593;28;20590;-71
2023/09/28 08:29:45;;;;;;;2.40;2.20;;;21.10;75.80;;;;;;4985772;28;20259;-70
2023/09/28 08:32:11;;;;;;;2.45;2.22;;;21.10;75.90;;;;;;4963650;28;20181;-70
2023/09/28 08:34:37;;;;;;;2.42;2.22;;;21.10;75.90;;;;;;4994405;28;20203;-70
2023/09/28 08:37:03;;;;;;;3.00;2.70;;;21.10;75.80;;;;;;4965099;28;20226;-70
2023/09/28 08:39:31;;;;;;;2.67;2.42;;;21.10;75.90;;;;;;5005258;28;20283;-71
2023/09/28 08:42:02;;;;;;;2.78;2.58;;;21.10;76.00;;;;;;4976718;28;20238;-71
2023/09/28 08:44:34;;;;;;;2.22;2.03;;;21.10;76.00;;;;;;4999898;28;20215;-70
2023/09/28 08:47:00;;;;;;;2.90;2.25;;;21.10;76.00;;;;;;4984516;28;20200;-71
2023/09/28 08:49:29;;;;;;;2.58;2.22;;;21.10;76.10;;;;;;4976746;28;20184;-70
2023/09/28 08:51:55;;;;;;;2.97;2.50;;;21.10;76.10;;;;;;5006610;28;20250;-70
2023/09/28 08:54:23;;;;;;;2.70;2.50;;;21.10;76.10;;;;;;4993580;28;20193;-70
2023/09/28 08:56:52;;;;;;;2.40;2.13;;;21.10;76.20;;;;;;4981088;28;20216;-71
2023/09/28 08:59:20;;;;;;;1.80;1.70;;;21.10;76.30;;;;;;4982350;28;20656;-71
2023/09/28 09:01:47;;;;;;;2.95;2.20;;;21.20;76.40;;;;;;4986703;28;20220;-70
2023/09/28 09:04:14;;;;;;;2.47;2.28;;;21.10;76.40;;;;;;4998244;28;20322;-70
2023/09/28 09:06:44;;;;;;;2.60;2.40;;;21.10;76.40;;;;;;4997008;28;20633;-70
2023/09/28 09:09:15;;;;;;;3.30;2.30;;;21.10;76.50;;;;;;4987075;28;20184;-70
2023/09/28 09:11:50;;;;;;;2.30;2.10;;;21.10;76.50;;;;;;5008268;28;20219;-70
2023/09/28 09:14:16;;;;;;;2.45;2.17;;;21.10;76.50;;;;;;4991137;28;20237;-71
2023/09/28 09:16:41;;;;;;;2.75;2.30;;;21.20;76.60;;;;;;4972642;28;20196;-70
2023/09/28 09:19:08;;;;;;;2.42;2.22;;;21.10;76.60;;;;;;4988657;28;20652;-70
2023/09/28 09:21:43;;;;;;;3.03;2.17;;;21.20;76.60;;;;;;4996362;28;20195;-70
2023/09/28 09:24:12;;;;;;;2.28;2.08;;;21.20;76.60;;;;;;5005567;28;20285;-70
2023/09/28 09:26:44;;;;;;;2.35;2.15;;;21.20;76.70;;;;;;5001840;28;20197;-70
2023/09/28 09:29:12;;;;;;;2.30;2.08;;;21.10;76.70;;;;;;4977290;28;20251;-70
2023/09/28 09:31:47;;;;;;;2.50;2.30;;;21.20;76.70;;;;;;4998406;28;20284;-71
2023/09/28 09:34:18;;;;;;;2.10;2.00;;;21.20;76.80;;;;;;4976893;28;20280;-71
2023/09/28 09:36:58;;;;;;;2.45;2.22;;;21.10;76.70;;;;;;4985194;28;20200;-70
2023/09/28 09:39:27;;;;;;;2.75;2.55;;;21.20;76.80;;;;;;5001594;28;20255;-70
2023/09/28 09:41:54;;;;;;;1.95;1.85;;;21.20;76.80;;;;;;4983675;28;20533;-70
2023/09/28 09:44:22;;;;;;;2.50;2.30;;;21.20;76.80;;;;;;4980949;28;20212;-70
2023/09/28 09:46:51;;;;;;;2.17;1.98;;;21.20;76.80;;;;;;5007384;28;20235;-70
2023/09/28 09:49:18;;;;;;;2.30;2.10;;;21.20;76.80;;;;;;5000677;28;20634;-70
2023/09/28 09:51:45;;;;;;;2.53;2.20;;;21.20;77.00;;;;;;4999825;28;20227;-71
2023/09/28 09:54:19;;;;;;;2.30;2.10;;;21.20;76.70;;;;;;4974663;28;20192;-70
2023/09/28 09:56:48;;;;;;;2.35;2.15;;;21.20;76.80;;;;;;4980869;28;20199;-71
2023/09/28 09:59:17;;;;;;;2.15;2.05;;;21.20;76.60;;;;;;4981684;28;20189;-70
2023/09/28 10:01:52;;;;;;;2.08;1.92;;;21.20;76.60;;;;;;5008693;28;20291;-70
2023/09/28 10:04:23;;;;;;;2.38;1.90;;;21.20;76.70;;;;;;4999282;28;20207;-71
2023/09/28 10:06:58;;;;;;;4.28;2.13;;;21.20;76.60;;;;;;5007539;28;20246;-70
2023/09/28 10:09:24;;;;;;;1.80;1.70;;;21.20;77.20;;;;;;4978762;28;20256;-71
2023/09/28 10:11:50;;;;;;;2.38;1.98;;;21.20;76.60;;;;;;4997754;28;20181;-71
2023/09/28 10:14:19;;;;;;;2.25;2.05;;;21.20;76.40;;;;;;4968282;28;20196;-70
2023/09/28 10:16:49;;;;;;;1.95;1.75;;;21.20;76.70;;;;;;5000393;28;20201;-70
2023/09/28 10:19:20;;;;;;;2.30;2.10;;;21.20;76.30;;;;;;4984679;28;20235;-70
2023/09/28 10:21:47;;;;;;;2.33;2.13;;;21.20;76.40;;;;;;5001642;28;20193;-70
2023/09/28 10:24:15;;;;;;;2.20;2.00;;;21.20;76.30;;;;;;4987112;28;20211;-70
2023/09/28 10:26:51;;;;;;;2.13;1.95;;;21.20;76.20;;;;;;5004842;28;20224;-71
2023/09/28 10:29:20;;;;;;;1.88;1.77;;;21.20;76.40;;;;;;4988686;28;20183;-70
2023/09/28 10:31:46;;;;;;;2.05;1.92;;;21.20;76.50;;;;;;4996190;28;20195;-70
2023/09/28 10:34:19;;;;;;;2.05;1.88;;;21.20;76.40;;;;;;4985954;28;20191;-71
2023/09/28 10:37:05;;;;;;;2.50;2.30;;;21.30;76.60;;;;;;5000404;28;20205;-71
2023/09/28 10:39:32;;;;;;;2.33;2.08;;;21.20;76.60;;;;;;4997213;28;20201;-70
2023/09/28 10:42:11;;;;;;;2.15;1.95;;;21.20;76.50;;;;;;4990004;28;20187;-71
2023/09/28 10:44:56;;;;;;;2.00;1.83;;;21.20;76.30;;;;;;4996838;28;20219;-70
2023/09/28 10:47:23;;;;;;;2.65;1.90;;;21.30;76.10;;;;;;5000012;28;20209;-70
2023/09/28 10:49:59;;;;;;;2.55;2.10;;;21.30;76.30;;;;;;4979307;28;20266;-71
2023/09/28 10:52:25;;;;;;;1.75;1.65;;;21.30;76.30;;;;;;4986927;28;20192;-71
2023/09/28 10:54:51;;;;;;;1.60;1.50;;;21.30;76.40;;;;;;4993524;28;20251;-70
2023/09/28 10:57:17;;;;;;;1.65;1.52;;;21.30;76.30;;;;;;4980129;28;20204;-71
2023/09/28 10:59:42;;;;;;;1.80;1.70;;;21.30;76.20;;;;;;4977746;28;20193;-71
2023/09/28 11:02:10;;;;;;;2.13;1.90;;;21.30;76.30;;;;;;4979699;28;20191;-71
2023/09/28 11:04:39;;;;;;;2.53;1.58;;;21.30;76.40;;;;;;5000208;28;20264;-70
2023/09/28 11:07:10;;;;;;;1.90;1.63;;;21.20;76.20;;;;;;4997464;28;20218;-70
2023/09/28 11:09:40;;;;;;;3.08;1.67;;;21.30;76.30;;;;;;4997463;28;20192;-73
2023/09/28 11:12:08;;;;;;;1.77;1.67;;;21.30;76.20;;;;;;4997612;28;20181;-71
2023/09/28 11:14:36;;;;;;;1.65;1.55;;;21.30;76.20;;;;;;4977071;28;20192;-70
2023/09/28 11:17:03;;;;;;;1.80;1.70;;;21.30;76.30;;;;;;4980767;28;20208;-70
2023/09/28 11:19:29;;;;;;;1.90;1.70;;;21.30;76.20;;;;;;4964612;28;20204;-71
2023/09/28 11:21:55;;;;;;;2.13;1.60;;;21.30;76.20;;;;;;4993286;28;20193;-71
2023/09/28 11:24:21;;;;;;;2.03;1.73;;;21.30;76.00;;;;;;4980725;28;20212;-70
2023/09/28 11:26:47;;;;;;;1.80;1.52;;;21.30;75.90;;;;;;4966574;28;20212;-71
2023/09/28 11:29:14;;;;;;;1.88;1.63;;;21.30;75.70;;;;;;4976600;28;20191;-71
2023/09/28 11:31:48;;;;;;;2.38;2.17;;;21.30;75.90;;;;;;4997043;28;20189;-70
2023/09/28 11:34:28;;;;;;;1.83;1.73;;;21.30;75.90;;;;;;4993912;28;20196;-71
2023/09/28 11:36:57;;;;;;;1.98;1.70;;;21.30;76.00;;;;;;4994572;28;20219;-71
2023/09/28 11:39:25;;;;;;;2.10;1.90;;;21.30;76.10;;;;;;4973324;28;20200;-71
2023/09/28 11:41:59;;;;;;;2.25;1.95;;;21.30;75.80;;;;;;4991746;28;20198;-70
2023/09/28 11:44:26;;;;;;;2.20;2.00;;;21.30;75.90;;;;;;4995978;28;20291;-71
2023/09/28 11:46:53;;;;;;;2.28;2.08;;;21.30;76.30;;;;;;4992916;28;20207;-71
2023/09/28 11:49:22;;;;;;;2.38;2.17;;;21.30;76.00;;;;;;4991950;28;20257;-71
2023/09/28 11:51:48;;;;;;;2.63;2.42;;;21.40;76.50;;;;;;4991742;28;20191;-71
2023/09/28 11:54:16;;;;;;;3.03;2.50;;;21.40;76.10;;;;;;4995335;28;20183;-71
2023/09/28 11:56:46;;;;;;;3.63;3.03;;;21.40;76.50;;;;;;4992591;28;20185;-71
2023/09/28 11:59:16;;;;;;;3.60;3.30;;;21.30;75.90;;;;;;4976606;28;20215;-71
2023/09/28 12:01:47;;;;;;;5.22;4.30;;;21.40;76.10;;;;;;4979585;28;20227;-70
2023/09/28 12:04:13;;;;;;;4.07;3.33;;;21.40;75.90;;;;;;4993563;28;20209;-70
2023/09/28 12:06:40;;;;;;;3.92;3.28;;;21.30;75.70;;;;;;4992242;28;20192;-71
2023/09/28 12:09:06;;;;;;;4.40;3.33;;;21.40;76.10;;;;;;4993649;28;20192;-71
2023/09/28 12:11:37;;;;;;;6.40;4.20;;;21.40;76.30;;;;;;4995742;28;20184;-70
2023/09/28 12:14:04;;;;;;;4.85;4.28;;;21.40;75.90;;;;;;4982861;28;20204;-71
2023/09/28 12:16:29;;;;;;;6.55;5.20;;;21.40;76.10;;;;;;4993060;28;20188;-71
2023/09/28 12:18:56;;;;;;;4.53;3.83;;;21.40;76.10;;;;;;4992039;28;20197;-71
2023/09/28 12:21:22;;;;;;;5.57;3.90;;;21.30;76.00;;;;;;4959944;28;20189;-71
2023/09/28 12:23:48;;;;;;;6.25;5.13;;;21.40;76.00;;;;;;4989919;28;20217;-71
2023/09/28 12:26:15;;;;;;;5.68;4.47;;;21.40;76.10;;;;;;4975585;28;20181;-71
2023/09/28 12:28:41;;;;;;;5.03;4.50;;;21.40;76.00;;;;;;4992205;28;20217;-71
2023/09/28 12:31:08;;;;;;;5.40;4.18;;;21.40;75.90;;;;;;4978750;28;20263;-71
2023/09/28 12:33:36;;;;;;;5.05;4.50;;;21.40;76.10;;;;;;4976789;28;20248;-72
2023/09/28 12:36:03;;;;;;;5.93;4.93;;;21.40;76.10;;;;;;4975409;28;20189;-71
2023/09/28 12:38:29;;;;;;;4.88;4.40;;;21.40;76.10;;;;;;4989850;28;20220;-71
2023/09/28 12:40:55;;;;;;;7.35;5.00;;;21.40;76.00;;;;;;4978596;28;20205;-70
2023/09/28 12:43:21;;;;;;;7.18;5.15;;;21.40;75.90;;;;;;4975522;28;20185;-71
2023/09/28 12:45:47;;;;;;;5.13;4.63;;;21.40;75.90;;;;;;4978228;28;20217;-71
2023/09/28 12:48:18;;;;;;;6.57;5.07;;;21.40;75.70;;;;;;4999589;28;20215;-70
2023/09/28 12:50:46;;;;;;;7.70;5.88;;;21.40;75.80;;;;;;4975449;28;20201;-72
2023/09/28 12:53:14;;;;;;;6.97;5.95;;;21.40;75.80;;;;;;4961557;28;20240;-70